Time;durP1;ratioP1;P1;durP2;ratioP2;P2;SDS_P1;SDS_P2;PMS_P1;PMS_P2;Temp;Humidity;BMP_temperature;BMP_pressure;BME280_temperature;BME280_humidity;BME280_pressure;Samples;Min_cycle;Max_cycle;Signal;HPM_P1;HPM_P2
2022/08/27 00:00:36;;;;;;;16.30;7.20;;;;;;;19.09;89.26;99689.23;105244;1271;69526;-74
2022/08/27 00:03:24;;;;;;;13.70;7.20;;;;;;;19.09;88.64;99684.55;105213;1271;72982;-74
2022/08/27 00:06:18;;;;;;;13.00;6.40;;;;;;;19.08;88.20;99682.03;105055;1271;59657;-74
2022/08/27 00:09:06;;;;;;;13.50;6.20;;;;;;;19.06;86.74;99678.40;105283;1271;61541;-74
2022/08/27 00:11:56;;;;;;;12.30;6.70;;;;;;;19.08;85.51;99675.85;105059;1271;73068;-72
2022/08/27 00:14:44;;;;;;;13.20;6.30;;;;;;;19.13;83.53;99673.27;104934;1271;68670;-72
2022/08/27 00:17:34;;;;;;;12.10;6.10;;;;;;;19.22;82.72;99671.13;105183;1271;73332;-73
2022/08/27 00:20:25;;;;;;;19.40;6.00;;;;;;;19.33;80.97;99671.37;105077;1271;59717;-73
2022/08/27 00:23:13;;;;;;;11.30;5.30;;;;;;;19.46;79.91;99665.01;105099;1271;60681;-73
2022/08/27 00:26:04;;;;;;;13.60;5.80;;;;;;;19.60;78.05;99663.12;105406;1271;72999;-73
2022/08/27 00:28:52;;;;;;;14.50;5.30;;;;;;;19.72;76.80;99662.16;105119;1271;69550;-72
2022/08/27 00:31:40;;;;;;;14.60;5.50;;;;;;;19.84;75.21;99662.40;105081;1271;73119;-71
2022/08/27 00:34:30;;;;;;;14.40;5.40;;;;;;;19.96;74.82;99658.52;105118;1271;61285;-73
2022/08/27 00:37:19;;;;;;;12.80;5.50;;;;;;;20.06;73.58;99657.05;105188;1271;62057;-72
2022/08/27 00:40:11;;;;;;;12.20;5.50;;;;;;;20.15;73.03;99657.27;105388;1271;72642;-72
2022/08/27 00:43:02;;;;;;;16.20;5.60;;;;;;;20.22;72.49;99657.80;105322;1271;66809;-72
2022/08/27 00:45:57;;;;;;;13.60;5.40;;;;;;;20.26;72.28;99654.67;105189;1271;73544;-77
2022/08/27 00:48:46;;;;;;;12.00;5.20;;;;;;;20.27;72.22;99650.42;105273;1271;59857;-74
2022/08/27 00:51:36;;;;;;;10.80;5.50;;;;;;;20.26;71.84;99657.14;105375;1271;60834;-74
2022/08/27 00:54:26;;;;;;;13.50;5.20;;;;;;;20.27;71.69;99656.89;105359;1271;74235;-74
2022/08/27 00:57:16;;;;;;;11.20;5.30;;;;;;;20.27;71.58;99656.69;105110;1271;68641;-74
2022/08/27 01:00:10;;;;;;;13.10;5.80;;;;;;;20.26;71.70;99660.99;105102;1271;74525;-74
2022/08/27 01:02:58;;;;;;;14.20;6.00;;;;;;;20.24;71.60;99659.77;105008;1271;59712;-73
2022/08/27 01:05:48;;;;;;;11.80;5.70;;;;;;;20.19;73.10;99657.52;105269;1271;62046;-74
2022/08/27 01:08:43;;;;;;;14.80;5.90;;;;;;;20.10;74.24;99657.71;105226;1271;74769;-73
2022/08/27 01:11:32;;;;;;;11.70;5.90;;;;;;;19.99;74.08;99656.02;105205;1271;69658;-73
2022/08/27 01:14:20;;;;;;;13.80;5.90;;;;;;;19.91;74.55;99657.59;104884;1271;72863;-73
2022/08/27 01:17:10;;;;;;;12.10;6.20;;;;;;;19.82;76.17;99654.52;105084;1271;60334;-73
2022/08/27 01:20:07;;;;;;;14.00;5.90;;;;;;;19.73;76.91;99657.02;105008;1271;62017;-73
2022/08/27 01:23:14;;;;;;;13.60;6.40;;;;;;;19.63;77.57;99654.45;105034;1270;74746;-74
2022/08/27 01:26:05;;;;;;;13.30;5.90;;;;;;;19.52;78.72;99651.27;105062;1271;66679;-74
2022/08/27 01:28:53;;;;;;;14.90;6.90;;;;;;;19.44;79.03;99649.63;104940;1271;73461;-73
2022/08/27 01:31:42;;;;;;;11.60;5.90;;;;;;;19.34;79.40;99651.52;105111;1271;59635;-75
2022/08/27 01:34:29;;;;;;;12.50;6.40;;;;;;;19.24;80.00;99650.11;105091;1271;61043;-73
2022/08/27 01:37:19;;;;;;;13.40;6.40;;;;;;;19.17;80.07;99647.31;105297;1271;73750;-73
2022/08/27 01:40:12;;;;;;;13.70;6.40;;;;;;;19.10;80.54;99652.85;104907;1271;66786;-73
2022/08/27 01:43:04;;;;;;;13.70;6.20;;;;;;;19.02;80.88;99654.98;105354;1271;74005;-73
2022/08/27 01:45:52;;;;;;;13.20;6.70;;;;;;;18.98;80.58;99657.27;105211;1271;59752;-73
2022/08/27 01:48:40;;;;;;;16.70;7.00;;;;;;;18.94;80.94;99657.97;105182;1271;60557;-73
2022/08/27 01:51:29;;;;;;;13.00;6.90;;;;;;;18.90;81.26;99655.01;105092;1271;73247;-73
2022/08/27 01:54:17;;;;;;;13.00;6.40;;;;;;;18.85;81.37;99654.23;105093;1271;68691;-73
2022/08/27 01:57:05;;;;;;;15.70;7.10;;;;;;;18.80;81.70;99651.23;105034;1271;71596;-73
2022/08/27 01:59:56;;;;;;;13.00;6.50;;;;;;;18.76;81.82;99652.34;105021;1271;60651;-73
2022/08/27 02:02:46;;;;;;;14.50;6.80;;;;;;;18.73;81.86;99656.98;104437;1271;1714678;-73
2022/08/27 02:05:35;;;;;;;16.80;6.20;;;;;;;18.70;82.40;99658.75;105272;1271;74704;-72
2022/08/27 02:08:32;;;;;;;15.00;6.20;;;;;;;18.67;82.07;99648.31;105328;1271;66667;-72
2022/08/27 02:11:20;;;;;;;15.90;6.50;;;;;;;18.67;81.75;99649.46;105068;1271;73364;-73
2022/08/27 02:14:08;;;;;;;13.90;6.40;;;;;;;18.66;82.24;99653.85;105063;1271;59785;-72
2022/08/27 02:17:01;;;;;;;12.70;6.20;;;;;;;18.64;82.96;99655.44;105494;1271;60558;-74
2022/08/27 02:19:49;;;;;;;17.50;6.00;;;;;;;18.63;82.14;99657.60;105085;1271;75194;-72
2022/08/27 02:22:37;;;;;;;14.10;6.30;;;;;;;18.62;81.96;99659.52;105068;1271;68517;-73
2022/08/27 02:25:27;;;;;;;14.20;6.10;;;;;;;18.62;82.17;99658.12;105106;1271;73430;-73
2022/08/27 02:28:17;;;;;;;12.20;6.40;;;;;;;18.61;83.50;99660.58;105330;1271;59640;-73
2022/08/27 02:31:06;;;;;;;14.50;6.20;;;;;;;18.60;83.63;99657.39;105110;1271;60532;-73
2022/08/27 02:33:56;;;;;;;11.80;6.20;;;;;;;18.59;83.42;99657.83;105063;1271;73685;-73
2022/08/27 02:36:46;;;;;;;14.90;6.70;;;;;;;18.56;83.46;99658.08;105054;1271;69554;-72
2022/08/27 02:39:34;;;;;;;13.90;6.90;;;;;;;18.52;84.09;99657.30;105189;1271;73537;-74
2022/08/27 02:42:24;;;;;;;15.10;6.40;;;;;;;18.46;84.39;99653.27;105063;1271;60004;-74
2022/08/27 02:45:13;;;;;;;14.30;6.60;;;;;;;18.41;84.65;99652.30;105062;1271;62170;-72
2022/08/27 02:48:02;;;;;;;14.40;6.70;;;;;;;18.36;84.70;99655.53;105033;1271;74808;-73
2022/08/27 02:50:51;;;;;;;13.10;6.60;;;;;;;18.33;85.28;99654.41;105304;1271;68536;-72
2022/08/27 02:53:39;;;;;;;15.40;7.60;;;;;;;18.30;85.46;99653.17;105066;1271;73355;-73
2022/08/27 02:56:27;;;;;;;13.30;6.60;;;;;;;18.27;84.32;99651.08;105138;1271;59768;-73
2022/08/27 02:59:15;;;;;;;16.00;6.60;;;;;;;18.23;85.18;99647.42;105098;1271;61951;-74
2022/08/27 03:02:03;;;;;;;13.00;6.60;;;;;;;18.17;86.10;99649.06;104856;1271;74728;-72
2022/08/27 03:04:52;;;;;;;15.20;7.40;;;;;;;18.12;86.29;99646.52;104906;1271;66945;-72
2022/08/27 03:07:40;;;;;;;17.20;7.30;;;;;;;18.07;86.57;99645.05;105025;1271;72861;-73
2022/08/27 03:10:28;;;;;;;13.80;6.70;;;;;;;18.01;87.09;99643.25;105241;1271;61263;-71
2022/08/27 03:13:17;;;;;;;13.60;6.60;;;;;;;17.96;87.36;99642.10;105301;1270;62005;-74
2022/08/27 03:16:07;;;;;;;13.90;6.30;;;;;;;17.92;87.54;99638.02;105376;1271;71965;-73
2022/08/27 03:18:55;;;;;;;12.00;6.10;;;;;;;17.89;87.45;99636.02;105086;1271;69550;-71
2022/08/27 03:21:43;;;;;;;13.00;6.50;;;;;;;17.87;87.57;99635.47;105075;1271;74464;-73
2022/08/27 03:24:41;;;;;;;16.40;6.80;;;;;;;17.85;87.73;99639.17;105400;1271;59682;-74
2022/08/27 03:27:29;;;;;;;12.90;6.90;;;;;;;17.82;87.62;99632.36;105091;1271;61033;-73
2022/08/27 03:30:22;;;;;;;18.10;6.60;;;;;;;17.78;87.98;99632.39;104944;1271;72027;-72
2022/08/27 03:33:11;;;;;;;11.80;6.10;;;;;;;17.75;88.17;99629.21;104915;1271;69771;-72
2022/08/27 03:35:59;;;;;;;14.30;6.60;;;;;;;17.72;88.02;99632.05;105073;1271;71622;-72
2022/08/27 03:38:47;;;;;;;15.30;6.30;;;;;;;17.68;87.75;99630.28;105078;1271;61219;-73
2022/08/27 03:41:35;;;;;;;14.00;6.30;;;;;;;17.70;87.54;99629.19;105117;1271;61033;-74
2022/08/27 03:44:42;;;;;;;12.60;6.40;;;;;;;17.71;87.04;99626.91;105282;1271;73857;-72
2022/08/27 03:47:31;;;;;;;15.20;6.80;;;;;;;17.73;87.16;99629.95;105090;1271;69801;-73
2022/08/27 03:50:19;;;;;;;15.50;7.80;;;;;;;17.73;87.07;99629.17;105331;1271;74441;-73
2022/08/27 03:53:08;;;;;;;12.70;6.60;;;;;;;17.72;86.87;99632.72;105047;1270;59755;-73
2022/08/27 03:55:56;;;;;;;12.40;6.90;;;;;;;17.72;86.93;99626.33;105019;1271;62089;-72
2022/08/27 03:58:45;;;;;;;13.20;6.70;;;;;;;17.72;86.91;99622.39;105067;1271;74475;-73
2022/08/27 04:01:33;;;;;;;14.20;6.40;;;;;;;17.72;87.02;99619.70;105117;1271;69594;-74
2022/08/27 04:04:22;;;;;;;15.10;6.80;;;;;;;17.73;87.40;99621.54;105336;1271;74373;-75
2022/08/27 04:07:10;;;;;;;16.40;7.10;;;;;;;17.74;87.57;99621.92;105210;1271;61578;-75
2022/08/27 04:09:58;;;;;;;13.80;7.10;;;;;;;17.77;87.59;99625.66;105245;1271;61454;-73
2022/08/27 04:12:46;;;;;;;13.60;6.90;;;;;;;17.79;87.97;99627.44;105134;1271;71930;-74
2022/08/27 04:15:34;;;;;;;16.10;7.50;;;;;;;17.79;87.79;99628.55;105202;1271;68101;-74
2022/08/27 04:18:27;;;;;;;13.20;6.90;;;;;;;17.79;87.87;99629.96;105149;1271;71701;-74
2022/08/27 04:21:16;;;;;;;14.60;6.70;;;;;;;17.78;87.31;99623.85;105555;1270;59646;-75
2022/08/27 04:24:04;;;;;;;12.70;6.90;;;;;;;17.79;87.15;99625.90;105163;1271;60755;-75
2022/08/27 04:26:53;;;;;;;14.30;7.00;;;;;;;17.82;86.73;99622.84;105184;1271;74628;-74
2022/08/27 04:29:41;;;;;;;15.00;6.80;;;;;;;17.86;86.50;99623.89;105139;1271;66834;-75
2022/08/27 04:32:29;;;;;;;16.70;7.30;;;;;;;17.93;86.40;99624.08;105332;1271;74381;-72
2022/08/27 04:35:21;;;;;;;18.70;7.10;;;;;;;17.99;86.13;99627.89;105288;1271;59656;-75
2022/08/27 04:38:09;;;;;;;13.40;6.50;;;;;;;18.06;85.63;99627.02;105264;1271;61981;-73
2022/08/27 04:44:10;;;;;;;13.90;7.00;;;;;;;18.26;84.45;99624.86;105109;1271;69818;-75
2022/08/27 04:47:02;;;;;;;14.70;7.20;;;;;;;18.38;84.09;99626.90;105114;1271;72828;-75
2022/08/27 04:49:49;;;;;;;12.60;6.70;;;;;;;18.50;83.93;99622.77;105360;1271;59663;-74
2022/08/27 04:52:37;;;;;;;17.10;7.20;;;;;;;18.63;83.03;99620.66;105112;1271;59670;-75
2022/08/27 04:55:27;;;;;;;16.80;6.50;;;;;;;18.74;82.73;99620.17;105114;1271;74748;-75
2022/08/27 04:58:19;;;;;;;14.40;6.50;;;;;;;18.84;82.31;99623.52;105158;1271;66825;-73
2022/08/27 05:01:08;;;;;;;17.00;7.30;;;;;;;18.93;82.00;99627.13;105255;1271;74392;-74
2022/08/27 05:03:57;;;;;;;14.80;7.00;;;;;;;19.02;81.62;99628.38;105168;1271;61275;-74
2022/08/27 05:06:45;;;;;;;15.20;6.50;;;;;;;19.12;81.40;99626.13;105245;1271;62136;-76
2022/08/27 05:09:34;;;;;;;14.20;6.20;;;;;;;19.23;80.64;99625.50;105139;1271;74906;-74
2022/08/27 05:12:22;;;;;;;14.60;6.70;;;;;;;19.35;80.14;99631.63;105157;1271;69565;-75
2022/08/27 05:15:10;;;;;;;17.10;6.20;;;;;;;19.45;79.63;99633.50;105371;1271;73450;-75
2022/08/27 05:17:59;;;;;;;15.10;6.80;;;;;;;19.53;79.13;99633.31;105126;1271;59663;-73
2022/08/27 05:20:48;;;;;;;14.70;6.80;;;;;;;19.65;78.51;99633.17;105245;1271;61065;-75
2022/08/27 05:23:36;;;;;;;15.10;6.80;;;;;;;19.78;78.11;99630.38;105242;1271;74751;-77
2022/08/27 05:26:27;;;;;;;13.70;7.00;;;;;;;19.90;77.61;99629.62;105306;1271;68543;-75
2022/08/27 05:29:16;;;;;;;16.10;6.60;;;;;;;20.01;77.03;99624.39;105163;1271;74481;-76
2022/08/27 05:32:04;;;;;;;13.50;6.30;;;;;;;20.14;76.63;99623.52;105558;1271;60554;-74
2022/08/27 05:34:52;;;;;;;13.10;6.60;;;;;;;20.28;75.88;99618.92;105335;1271;62049;-71
2022/08/27 05:37:40;;;;;;;14.00;6.90;;;;;;;20.41;75.68;99621.04;105392;1269;73667;-71
2022/08/27 05:40:28;;;;;;;12.50;6.50;;;;;;;20.57;75.25;99624.11;105275;1271;68578;-72
2022/08/27 05:43:17;;;;;;;12.80;6.80;;;;;;;20.75;74.63;99625.12;105164;1271;74561;-73
2022/08/27 05:46:10;;;;;;;15.80;6.70;;;;;;;20.94;74.18;99628.46;105129;1271;59738;-70
2022/08/27 05:49:00;;;;;;;13.70;6.30;;;;;;;21.15;73.49;99627.05;105166;1271;61056;-71
2022/08/27 05:51:48;;;;;;;17.20;6.60;;;;;;;21.46;72.60;99622.30;105157;1271;74720;-72
2022/08/27 05:54:38;;;;;;;16.50;6.50;;;;;;;21.94;70.74;99628.78;105296;1271;65740;-73
2022/08/27 05:57:26;;;;;;;15.60;6.90;;;;;;;22.48;68.35;99629.98;105129;1271;74400;-72
2022/08/27 06:03:21;;;;;;;17.00;6.50;;;;;;;23.63;64.12;99627.42;105179;1271;60211;-73
2022/08/27 06:06:10;;;;;;;17.50;7.60;;;;;;;24.16;61.35;99625.11;105464;1271;73230;-71
2022/08/27 06:08:57;;;;;;;15.90;7.30;;;;;;;24.77;59.67;99632.95;104972;1273;68957;-73
2022/08/27 06:11:46;;;;;;;16.00;7.80;;;;;;;25.32;57.03;99630.55;105029;1271;73248;-71
2022/08/27 06:14:36;;;;;;;16.90;8.10;;;;;;;25.80;54.50;99630.38;105389;1271;59726;-71
2022/08/27 06:17:25;;;;;;;13.10;7.30;;;;;;;26.36;53.11;99633.05;105458;1271;60324;-73
2022/08/27 06:20:13;;;;;;;17.40;7.40;;;;;;;26.96;49.98;99634.92;105118;1271;74844;-70
2022/08/27 06:23:00;;;;;;;12.60;7.70;;;;;;;27.85;47.90;99628.52;105148;1271;67884;-71
2022/08/27 06:25:48;;;;;;;14.60;6.70;;;;;;;28.97;44.68;99625.30;105403;1271;74385;-71
2022/08/27 06:28:40;;;;;;;16.30;6.70;;;;;;;30.02;41.87;99620.73;105104;1271;59818;-71
2022/08/27 06:31:29;;;;;;;15.80;6.30;;;;;;;31.02;40.07;99623.33;105394;1271;59726;-73
2022/08/27 06:34:18;;;;;;;12.50;5.80;;;;;;;31.95;39.01;99621.49;105146;1271;73635;-72
2022/08/27 06:37:06;;;;;;;14.80;5.70;;;;;;;32.85;37.70;99625.23;105314;1271;69542;-69
2022/08/27 06:39:54;;;;;;;12.30;5.70;;;;;;;33.76;36.19;99617.39;105127;1271;72812;-72
2022/08/27 06:42:43;;;;;;;10.10;5.20;;;;;;;34.64;34.46;99615.48;105152;1271;59676;-71
2022/08/27 06:45:31;;;;;;;11.20;5.30;;;;;;;35.40;32.28;99617.61;105415;1271;60370;-72
2022/08/27 06:48:19;;;;;;;11.20;5.30;;;;;;;36.04;30.99;99617.11;105436;1271;72339;-72
2022/08/27 06:51:17;;;;;;;13.90;5.70;;;;;;;36.44;30.19;99615.05;105442;1271;69415;-71
2022/08/27 06:54:11;;;;;;;14.20;5.40;;;;;;;36.97;29.25;99613.61;105129;1271;72842;-72
2022/08/27 06:56:59;;;;;;;10.20;5.10;;;;;;;37.33;28.62;99609.90;105073;1271;60026;-71
2022/08/27 06:59:47;;;;;;;10.60;4.90;;;;;;;37.60;28.07;99613.97;105154;1271;60917;-71
2022/08/27 07:02:35;;;;;;;10.60;4.70;;;;;;;37.82;27.85;99608.79;105362;1271;74761;-70
2022/08/27 07:05:24;;;;;;;9.60;5.20;;;;;;;38.15;27.22;99608.96;105184;1271;70022;-70
2022/08/27 07:08:12;;;;;;;10.30;5.00;;;;;;;38.57;26.31;99612.44;105185;1271;73405;-71
2022/08/27 07:11:00;;;;;;;13.10;5.40;;;;;;;39.04;26.41;99610.03;105107;1271;60015;-69
2022/08/27 07:13:49;;;;;;;9.90;4.80;;;;;;;39.60;25.87;99608.68;105136;1271;59637;-71
2022/08/27 07:16:38;;;;;;;10.00;5.00;;;;;;;39.96;24.72;99609.75;105122;1271;73735;-69
2022/08/27 07:19:29;;;;;;;15.80;5.30;;;;;;;40.34;24.02;99605.95;105121;1271;67815;-70
2022/08/27 07:22:17;;;;;;;11.50;4.80;;;;;;;40.70;23.63;99606.18;105092;1271;74769;-71
2022/08/27 07:25:11;;;;;;;12.10;4.90;;;;;;;40.99;23.12;99603.05;105044;1271;59685;-72
2022/08/27 07:27:59;;;;;;;12.00;4.70;;;;;;;41.35;22.63;99604.48;105013;1271;60985;-72
2022/08/27 07:30:48;;;;;;;7.80;4.00;;;;;;;41.50;22.63;99597.11;105155;1271;74744;-71
2022/08/27 07:33:38;;;;;;;10.00;4.10;;;;;;;41.64;22.48;99599.98;105096;1271;68509;-73
2022/08/27 07:36:33;;;;;;;14.60;4.20;;;;;;;42.00;22.23;99596.65;105481;1271;72845;-71
2022/08/27 07:39:22;;;;;;;10.40;4.00;;;;;;;42.42;22.04;99595.15;105434;1271;59665;-71
2022/08/27 07:45:17;;;;;;;11.30;4.00;;;;;;;42.53;20.43;99591.45;105095;1271;74722;-73
2022/08/27 07:48:05;;;;;;;10.20;3.80;;;;;;;42.68;20.76;99589.29;105047;1271;69701;-69
2022/08/27 07:50:54;;;;;;;9.40;4.10;;;;;;;42.63;20.74;99587.08;105383;1271;74458;-70
2022/08/27 07:53:44;;;;;;;10.20;3.90;;;;;;;42.83;21.13;99587.05;105192;1271;59765;-70
2022/08/27 07:56:31;;;;;;;9.20;3.50;;;;;;;42.83;21.18;99584.10;105106;1271;62005;-71
2022/08/27 07:59:19;;;;;;;8.90;3.60;;;;;;;42.83;19.91;99583.30;105140;1271;73269;-71
2022/08/27 08:02:11;;;;;;;7.80;3.30;;;;;;;42.97;20.09;99582.24;105126;1271;69934;-69
2022/08/27 08:05:00;;;;;;;10.00;3.90;;;;;;;42.98;20.62;99582.83;105105;1271;73223;-70
2022/08/27 08:07:49;;;;;;;8.80;3.50;;;;;;;42.93;20.24;99585.56;105116;1271;59960;-72
2022/08/27 08:10:39;;;;;;;9.40;3.20;;;;;;;43.06;20.29;99584.21;105141;1271;60977;-71
2022/08/27 08:13:27;;;;;;;9.60;3.20;;;;;;;43.16;20.06;99583.83;105145;1271;72110;-70
2022/08/27 08:16:15;;;;;;;13.30;3.80;;;;;;;43.11;19.42;99581.52;105108;1271;69586;-71
2022/08/27 08:19:03;;;;;;;9.00;3.50;;;;;;;43.15;19.00;99580.77;105100;1271;74407;-71
2022/08/27 08:21:52;;;;;;;10.80;3.60;;;;;;;43.11;19.41;99577.84;105146;1271;59660;-72
2022/08/27 08:24:47;;;;;;;10.40;3.70;;;;;;;42.87;19.65;99574.98;105131;1271;62052;-70
2022/08/27 08:27:37;;;;;;;10.70;3.80;;;;;;;42.90;19.74;99576.75;105148;1271;73515;-71
2022/08/27 08:30:26;;;;;;;9.70;3.50;;;;;;;43.19;19.04;99576.73;105151;1271;66787;-71
2022/08/27 08:33:17;;;;;;;10.40;3.60;;;;;;;43.23;18.21;99578.45;105134;1271;74450;-71
2022/08/27 08:36:12;;;;;;;7.50;3.20;;;;;;;43.14;18.36;99578.35;105128;1271;59781;-71
2022/08/27 08:38:59;;;;;;;9.10;3.60;;;;;;;43.33;18.85;99579.08;105372;1271;62010;-70
2022/08/27 08:41:56;;;;;;;9.40;3.60;;;;;;;43.50;19.34;99579.23;105323;1271;74247;-71
2022/08/27 08:44:52;;;;;;;9.30;3.30;;;;;;;43.61;19.42;99571.55;105328;1272;68647;-72
2022/08/27 08:47:52;;;;;;;8.30;3.90;;;;;;;43.82;19.68;99571.13;105143;1274;74471;-70
2022/08/27 08:51:04;;;;;;;8.80;3.70;;;;;;;43.93;18.89;99566.42;105349;1271;59798;-72
2022/08/27 08:54:00;;;;;;;10.80;3.70;;;;;;;44.22;18.59;99562.25;105356;1271;61663;-70
2022/08/27 08:57:07;;;;;;;8.50;3.60;;;;;;;44.34;18.21;99559.56;105307;1271;73938;-71
2022/08/27 09:00:12;;;;;;;11.40;3.40;;;;;;;44.38;17.53;99562.88;105451;1271;69636;-71
2022/08/27 09:02:59;;;;;;;12.10;3.50;;;;;;;44.22;17.62;99559.95;105317;1271;73072;-72
2022/08/27 09:06:06;;;;;;;12.50;3.60;;;;;;;44.28;17.90;99554.91;105312;1271;59631;-71
2022/08/27 09:08:54;;;;;;;9.80;3.60;;;;;;;44.19;17.44;99561.46;104866;1273;61002;-70
2022/08/27 09:11:59;;;;;;;11.00;3.60;;;;;;;44.12;17.37;99565.20;104938;1272;73662;-70
2022/08/27 09:15:00;;;;;;;8.80;3.40;;;;;;;43.56;17.73;99564.46;104893;1274;68576;-72
2022/08/27 09:17:49;;;;;;;10.80;3.70;;;;;;;43.42;18.52;99561.02;105118;1271;73567;-72
2022/08/27 09:20:39;;;;;;;10.20;4.10;;;;;;;43.36;19.85;99561.40;105187;1271;59618;-72
2022/08/27 09:23:33;;;;;;;11.50;4.40;;;;;;;43.39;20.73;99557.77;105395;1271;61851;-71
2022/08/27 09:26:26;;;;;;;8.90;3.60;;;;;;;43.23;19.94;99562.40;105127;1271;71569;-73
2022/08/27 09:29:20;;;;;;;8.60;3.80;;;;;;;43.21;20.36;99559.85;105137;1271;69596;-70
2022/08/27 09:32:08;;;;;;;11.10;4.30;;;;;;;43.32;21.25;99561.07;105123;1271;72882;-71
2022/08/27 09:35:01;;;;;;;12.50;4.90;;;;;;;43.34;22.22;99560.58;105113;1271;59849;-76
2022/08/27 09:37:53;;;;;;;12.80;4.50;;;;;;;43.48;21.86;99561.17;105139;1271;61177;-72
2022/08/27 09:40:48;;;;;;;10.30;4.40;;;;;;;43.43;21.53;99564.66;104973;1271;73535;-71
2022/08/27 09:43:38;;;;;;;12.40;4.60;;;;;;;43.44;21.95;99562.08;105148;1271;69543;-71
2022/08/27 09:46:26;;;;;;;11.50;4.60;;;;;;;43.40;22.45;99562.50;105077;1271;73923;-71
2022/08/27 09:49:16;;;;;;;12.20;4.90;;;;;;;43.32;22.73;99564.42;105176;1271;59666;-72
2022/08/27 09:52:04;;;;;;;11.40;4.30;;;;;;;43.45;22.34;99567.38;105160;1271;62035;-71
2022/08/27 09:54:54;;;;;;;10.00;4.40;;;;;;;43.39;22.19;99565.18;105123;1271;74727;-71
2022/08/27 09:57:42;;;;;;;11.30;4.90;;;;;;;43.48;22.65;99568.06;105114;1271;68009;-71
2022/08/27 10:00:39;;;;;;;12.90;5.00;;;;;;;43.67;22.46;99564.79;105169;1271;71834;-71
2022/08/27 10:03:29;;;;;;;11.40;4.70;;;;;;;43.77;22.23;99564.42;105365;1271;59654;-70
2022/08/27 10:06:29;;;;;;;11.80;5.30;;;;;;;43.81;21.59;99562.55;105077;1271;62068;-71
2022/08/27 10:09:41;;;;;;;13.00;4.90;;;;;;;43.84;21.44;99558.30;104930;1271;74843;-72
2022/08/27 10:12:43;;;;;;;10.70;5.20;;;;;;;43.79;21.90;99558.00;105288;1271;68636;-70
2022/08/27 10:16:45;;;;;;;11.30;4.90;;;;;;;43.71;22.12;99555.21;105115;1271;74069;-72
2022/08/27 10:20:08;;;;;;;12.70;5.10;;;;;;;43.59;22.22;99557.09;104654;1280;59673;-72
2022/08/27 10:23:27;;;;;;;13.40;4.90;;;;;;;43.64;21.87;99553.24;104148;1282;60600;-71
2022/08/27 10:26:38;;;;;;;10.60;4.80;;;;;;;43.41;21.49;99553.83;104247;1281;74781;-73
2022/08/27 10:30:12;;;;;;;12.90;5.20;;;;;;;43.34;22.02;99550.57;104378;1279;69358;-72
2022/08/27 10:33:38;;;;;;;12.50;4.70;;;;;;;43.35;22.26;99547.58;104785;1281;74417;-71
2022/08/27 10:37:03;;;;;;;13.60;5.20;;;;;;;43.30;21.82;99544.21;103818;1287;59764;-71
2022/08/27 10:40:09;;;;;;;12.50;4.70;;;;;;;43.09;22.25;99548.02;104065;1287;60524;-72
2022/08/27 10:43:28;;;;;;;12.90;5.40;;;;;;;42.78;22.59;99541.60;103734;1287;73856;-72
2022/08/27 10:47:13;;;;;;;13.80;5.80;;;;;;;42.52;22.84;99541.56;104010;1287;68416;-72
2022/08/27 10:50:33;;;;;;;14.00;6.20;;;;;;;42.40;22.78;99539.64;103872;1287;74877;-71
2022/08/27 10:53:48;;;;;;;11.90;5.50;;;;;;;42.37;22.88;99535.73;103888;1287;59728;-72
2022/08/27 10:56:54;;;;;;;15.90;6.70;;;;;;;42.02;23.07;99535.50;104473;1281;62062;-72
2022/08/27 11:00:14;;;;;;;17.60;6.60;;;;;;;42.05;23.19;99532.80;104800;1280;74692;-71
2022/08/27 11:03:40;;;;;;;12.80;6.30;;;;;;;42.12;23.11;99533.60;104596;1279;68514;-72
2022/08/27 11:07:01;;;;;;;13.50;7.10;;;;;;;42.22;22.86;99536.21;104346;1281;73306;-69
2022/08/27 11:09:57;;;;;;;14.50;5.80;;;;;;;42.10;23.28;99535.79;104806;1281;59960;-72
2022/08/27 11:12:51;;;;;;;12.70;5.90;;;;;;;41.87;23.35;99537.67;104430;1274;60621;-70
2022/08/27 11:15:45;;;;;;;14.80;6.30;;;;;;;41.70;23.02;99536.46;104980;1271;74537;-71
2022/08/27 11:18:48;;;;;;;15.70;5.90;;;;;;;41.50;23.32;99533.83;105110;1271;68525;-71
2022/08/27 11:22:08;;;;;;;15.10;6.50;;;;;;;41.40;24.06;99538.51;105252;1271;72913;-73
2022/08/27 11:25:25;;;;;;;12.40;6.60;;;;;;;41.21;24.95;99534.59;105233;1271;59552;-72
2022/08/27 11:28:14;;;;;;;17.70;6.80;;;;;;;41.07;25.63;99536.50;105507;1271;62132;-72
2022/08/27 11:31:37;;;;;;;12.90;7.20;;;;;;;40.76;25.78;99533.94;105197;1271;73675;-72
2022/08/27 11:34:50;;;;;;;14.70;7.40;;;;;;;40.36;26.24;99536.26;104848;1271;66808;-72
2022/08/27 11:37:41;;;;;;;13.70;7.60;;;;;;;39.87;26.89;99538.45;105330;1271;73470;-73
2022/08/27 11:40:48;;;;;;;11.80;6.50;;;;;;;39.50;27.44;99540.81;105100;1271;59755;-74
2022/08/27 11:43:36;;;;;;;13.10;6.50;;;;;;;39.09;27.62;99536.24;105127;1271;60723;-71
2022/08/27 11:46:38;;;;;;;15.80;6.70;;;;;;;38.69;28.03;99535.04;104974;1274;74293;-72
2022/08/27 11:49:41;;;;;;;11.50;6.30;;;;;;;38.31;28.36;99529.58;105482;1271;68467;-73
2022/08/27 11:52:52;;;;;;;12.20;6.40;;;;;;;37.92;29.23;99532.11;105451;1271;73908;-73
2022/08/27 11:55:40;;;;;;;16.60;6.70;;;;;;;37.63;29.44;99529.92;105147;1271;59884;-71
2022/08/27 11:58:30;;;;;;;11.00;6.40;;;;;;;37.45;29.43;99525.36;105076;1271;61044;-74
2022/08/27 12:01:30;;;;;;;11.70;6.00;;;;;;;37.28;29.86;99523.79;105369;1271;72904;-74
2022/08/27 12:04:30;;;;;;;12.40;6.30;;;;;;;37.04;30.29;99527.70;105187;1271;67546;-72
2022/08/27 12:07:20;;;;;;;14.20;6.20;;;;;;;36.56;31.26;99522.91;105462;1271;73335;-71
2022/08/27 12:10:21;;;;;;;10.70;6.20;;;;;;;36.05;32.46;99522.19;105268;1271;59666;-70
2022/08/27 12:13:47;;;;;;;14.50;6.80;;;;;;;35.50;33.37;99527.10;105302;1271;60977;-71
2022/08/27 12:17:00;;;;;;;13.20;6.60;;;;;;;34.77;33.98;99529.81;104375;1279;73708;-70
2022/08/27 12:20:12;;;;;;;13.00;6.30;;;;;;;34.08;34.74;99534.77;104309;1279;70147;-71
2022/08/27 12:26:34;;;;;;;12.70;6.50;;;;;;;33.36;36.48;99523.96;104655;1279;59767;-72
2022/08/27 12:29:40;;;;;;;14.40;7.00;;;;;;;33.12;37.22;99526.58;104827;1279;61002;-71
2022/08/27 12:32:43;;;;;;;12.30;6.00;;;;;;;32.79;37.23;99521.08;104554;1280;73562;-72
2022/08/27 12:35:45;;;;;;;14.60;6.40;;;;;;;32.54;37.52;99523.48;104379;1279;67389;-73
2022/08/27 12:38:56;;;;;;;14.60;6.70;;;;;;;32.34;37.82;99520.98;104392;1279;74346;-73
2022/08/27 12:41:49;;;;;;;12.10;6.30;;;;;;;32.14;38.64;99516.70;104389;1279;59947;-72
2022/08/27 12:44:37;;;;;;;15.00;7.20;;;;;;;32.03;38.87;99516.30;104382;1279;60584;-71
2022/08/27 12:47:25;;;;;;;14.20;6.70;;;;;;;31.94;38.83;99519.81;104365;1279;72066;-74
2022/08/27 12:50:22;;;;;;;14.30;7.30;;;;;;;31.79;39.07;99516.66;104473;1280;68547;-71
2022/08/27 12:53:20;;;;;;;13.10;6.80;;;;;;;31.65;39.19;99515.33;104329;1271;73346;-72
2022/08/27 12:56:44;;;;;;;15.30;6.70;;;;;;;31.53;39.23;99510.70;105098;1271;59746;-72
2022/08/27 12:59:45;;;;;;;13.30;6.30;;;;;;;31.40;39.22;99515.08;105188;1271;62095;-71
2022/08/27 13:03:02;;;;;;;13.30;6.70;;;;;;;31.30;39.38;99513.84;105257;1271;73247;-71
2022/08/27 13:05:55;;;;;;;14.90;6.50;;;;;;;31.18;38.63;99512.98;105073;1271;68689;-71
2022/08/27 13:08:43;;;;;;;13.80;6.60;;;;;;;31.02;39.12;99512.09;105170;1271;74399;-72
2022/08/27 13:11:55;;;;;;;13.40;6.60;;;;;;;30.94;39.40;99515.00;104982;1271;59657;-73
2022/08/27 13:14:43;;;;;;;15.00;6.70;;;;;;;30.86;39.47;99508.31;105028;1271;60633;-72
2022/08/27 13:17:40;;;;;;;15.60;6.90;;;;;;;30.79;39.59;99510.15;105136;1269;73008;-72
2022/08/27 13:20:30;;;;;;;11.00;6.80;;;;;;;30.71;39.95;99511.26;105086;1271;68521;-72
2022/08/27 13:23:22;;;;;;;14.60;6.40;;;;;;;30.66;40.23;99515.29;105370;1271;72662;-73
2022/08/27 13:26:11;;;;;;;14.60;6.80;;;;;;;30.61;40.18;99509.27;105127;1271;59617;-72
2022/08/27 13:29:01;;;;;;;13.00;6.90;;;;;;;30.52;40.16;99504.55;105154;1271;62129;-73
2022/08/27 13:31:51;;;;;;;11.10;6.50;;;;;;;30.44;40.79;99510.20;104951;1271;72179;-68